Time;durP1;ratioP1;P1;durP2;ratioP2;P2;SDS_P1;SDS_P2;PMS_P1;PMS_P2;Temp;Humidity;BMP_temperature;BMP_pressure;BME280_temperature;BME280_humidity;BME280_pressure;Samples;Min_cycle;Max_cycle;Signal;HPM_P1;HPM_P2
2019/05/26 00:01:03;;;;;;;17.3;15.7;;;;;;;13.51;86.82031;960.2479;;;;
2019/05/26 00:03:28;;;;;;;14.8;13.5;;;;;;;13.59;86.42969;960.2258;;;;
2019/05/26 00:05:54;;;;;;;16.3;14.8;;;;;;;13.47;87.51953;960.2532;;;;
2019/05/26 00:08:19;;;;;;;16.7;15.1;;;;;;;13.54;86.9668;960.257;;;;
2019/05/26 00:10:45;;;;;;;15.4;14.1;;;;;;;13.51;87.41211;960.2053;;;;
2019/05/26 00:13:11;;;;;;;16.5;15;;;;;;;13.47;87.46191;960.2147;;;;
2019/05/26 00:15:47;;;;;;;17.3;15.8;;;;;;;13.37;87.73242;960.2003;;;;
2019/05/26 00:18:21;;;;;;;16.2;14.7;;;;;;;13.35;87.91406;960.215;;;;
2019/05/26 00:20:46;;;;;;;18.8;17;;;;;;;13.36;87.96289;960.2141;;;;
2019/05/26 00:23:11;;;;;;;18.9;17;;;;;;;13.33;88.29199;960.1495;;;;
2019/05/26 00:25:36;;;;;;;18.7;16.9;;;;;;;13.33;87.99219;960.2217;;;;
2019/05/26 00:28:01;;;;;;;18.8;17;;;;;;;13.26;88.34961;960.1742;;;;
2019/05/26 00:30:26;;;;;;;19.5;17.7;;;;;;;13.27;88.25781;960.1902;;;;
2019/05/26 00:33:13;;;;;;;21.1;19.2;;;;;;;13.27;88.08398;960.2029;;;;
2019/05/26 00:35:54;;;;;;;19.2;17.4;;;;;;;13.28;88.13184;960.1121;;;;
2019/05/26 00:38:24;;;;;;;18.7;17;;;;;;;13.35;88.01855;960.1042;;;;
2019/05/26 00:40:49;;;;;;;18.7;17;;;;;;;13.33;88.18945;960.0586;;;;
2019/05/26 00:43:14;;;;;;;20.9;19.1;;;;;;;13.26;88.22168;960.02;;;;
2019/05/26 00:45:39;;;;;;;20.5;18.5;;;;;;;13.28;88.0166;960.0695;;;;
2019/05/26 00:48:04;;;;;;;20.6;18.6;;;;;;;13.18;88.37988;960.0461;;;;
2019/05/26 00:50:30;;;;;;;19.9;18;;;;;;;13.17;88.71387;960.0255;;;;
2019/05/26 00:52:55;;;;;;;20;18.2;;;;;;;13.27;88.00098;960.0151;;;;
2019/05/26 00:55:21;;;;;;;19.1;17.2;;;;;;;13.29;88.35449;960.0551;;;;
2019/05/26 00:57:58;;;;;;;20.9;18.8;;;;;;;13.27;88.4209;960.0101;;;;
2019/05/26 01:00:24;;;;;;;21;18.9;;;;;;;13.24;88.125;959.9705;;;;
2019/05/26 01:02:49;;;;;;;19.7;17.9;;;;;;;13.21;88.58398;959.9479;;;;
2019/05/26 01:05:16;;;;;;;20;18.1;;;;;;;13.26;88.03613;959.9558;;;;
2019/05/26 01:07:56;;;;;;;19.5;17.7;;;;;;;13.22;88.52637;960.0033;;;;
2019/05/26 01:10:22;;;;;;;21.5;19.5;;;;;;;13.17;88.77246;959.9789;;;;
2019/05/26 01:12:48;;;;;;;21.7;19.6;;;;;;;;;;;;;
2019/05/26 01:15:12;;;;;;;21.3;19.3;;;;;;;;;;;;;
2019/05/26 01:17:37;;;;;;;21.3;19.3;;;;;;;;;;;;;
2019/05/26 01:20:04;;;;;;;20.6;18.7;;;;;;;;;;;;;
2019/05/26 01:22:30;;;;;;;22.9;20.8;;;;;;;;;;;;;
2019/05/26 01:24:56;;;;;;;23;20.8;;;;;;;;;;;;;
2019/05/26 01:27:29;;;;;;;22.8;20.6;;;;;;;;;;;;;
2019/05/26 01:30:01;;;;;;;22.9;20.8;;;;;;;;;;;;;
2019/05/26 01:32:32;;;;;;;24.8;22.4;;;;;;;;;;;;;
2019/05/26 01:34:57;;;;;;;22.6;20.4;;;;;;;;;;;;;
2019/05/26 01:37:22;;;;;;;23.4;21.2;;;;;;;;;;;;;
2019/05/26 01:39:47;;;;;;;24.9;22.5;;;;;;;;;;;;;
2019/05/26 01:42:13;;;;;;;25.5;23.2;;;;;;;;;;;;;
2019/05/26 01:44:38;;;;;;;24.6;22.3;;;;;;;;;;;;;
2019/05/26 01:47:03;;;;;;;27;24.5;;;;;;;;;;;;;
2019/05/26 01:49:30;;;;;;;23.8;21.6;;;;;;;;;;;;;
2019/05/26 01:51:55;;;;;;;23.6;21.4;;;;;;;;;;;;;
2019/05/26 01:54:20;;;;;;;26.4;24;;;;;;;;;;;;;
2019/05/26 01:56:45;;;;;;;25.1;22.7;;;;;;;;;;;;;
2019/05/26 01:59:12;;;;;;;24.5;22.2;;;;;;;;;;;;;
2019/05/26 02:01:37;;;;;;;25.4;23;;;;;;;;;;;;;
2019/05/26 02:04:02;;;;;;;27.1;24.6;;;;;;;;;;;;;
2019/05/26 02:06:32;;;;;;;22.9;20.7;;;;;;;;;;;;;
2019/05/26 02:08:58;;;;;;;24.7;22.3;;;;;;;;;;;;;
2019/05/26 02:11:23;;;;;;;23.8;21.5;;;;;;;;;;;;;
2019/05/26 02:13:48;;;;;;;24.4;22;;;;;;;;;;;;;
2019/05/26 02:16:16;;;;;;;24.8;22.5;;;;;;;;;;;;;
2019/05/26 02:18:41;;;;;;;27.1;24.6;;;;;;;;;;;;;
2019/05/26 02:21:07;;;;;;;26.6;24.1;;;;;;;;;;;;;
2019/05/26 02:23:32;;;;;;;27.6;24.9;;;;;;;;;;;;;
2019/05/26 02:25:57;;;;;;;25.7;23.2;;;;;;;;;;;;;
2019/05/26 02:28:23;;;;;;;28;25.4;;;;;;;;;;;;;
2019/05/26 02:30:48;;;;;;;27.3;24.7;;;;;;;;;;;;;
2019/05/26 02:33:13;;;;;;;27.6;24.9;;;;;;;;;;;;;
2019/05/26 02:35:38;;;;;;;28.9;26.1;;;;;;;;;;;;;
2019/05/26 02:38:04;;;;;;;29.8;27;;;;;;;;;;;;;
2019/05/26 02:40:29;;;;;;;32.1;29;;;;;;;;;;;;;
2019/05/26 02:42:54;;;;;;;32.7;29.6;;;;;;;;;;;;;
2019/05/26 02:45:19;;;;;;;30.2;27.3;;;;;;;;;;;;;
2019/05/26 02:47:44;;;;;;;30.3;27.4;;;;;;;;;;;;;
2019/05/26 02:50:16;;;;;;;30.1;27.2;;;;;;;;;;;;;
2019/05/26 02:52:41;;;;;;;31.9;28.7;;;;;;;;;;;;;
2019/05/26 02:55:07;;;;;;;28.6;25.9;;;;;;;;;;;;;
2019/05/26 02:57:40;;;;;;;33;29.8;;;;;;;;;;;;;
2019/05/26 03:00:11;;;;;;;33.9;30.6;;;;;;;;;;;;;
2019/05/26 03:02:41;;;;;;;37.5;33.7;;;;;;;;;;;;;
2019/05/26 03:05:07;;;;;;;39.3;35.5;;;;;;;;;;;;;
2019/05/26 03:07:32;;;;;;;37.6;33.7;;;;;;;;;;;;;
2019/05/26 03:09:58;;;;;;;36.6;33;;;;;;;;;;;;;
2019/05/26 03:12:23;;;;;;;31.4;28.2;;;;;;;;;;;;;
2019/05/26 03:14:48;;;;;;;33.2;30;;;;;;;;;;;;;
2019/05/26 03:17:13;;;;;;;34.3;31;;;;;;;;;;;;;
2019/05/26 03:19:40;;;;;;;34.9;31.4;;;;;;;;;;;;;
2019/05/26 03:22:05;;;;;;;36.1;32.4;;;;;;;;;;;;;
2019/05/26 03:24:31;;;;;;;39.8;35.7;;;;;;;;;;;;;
2019/05/26 03:26:56;;;;;;;38.7;34.9;;;;;;;;;;;;;
2019/05/26 03:29:21;;;;;;;40.4;36.2;;;;;;;;;;;;;
2019/05/26 03:31:46;;;;;;;36.5;32.9;;;;;;;;;;;;;
2019/05/26 03:34:11;;;;;;;39.2;35.3;;;;;;;;;;;;;
2019/05/26 03:36:36;;;;;;;37.3;33.5;;;;;;;;;;;;;
2019/05/26 03:39:01;;;;;;;41.6;37.2;;;;;;;;;;;;;
2019/05/26 03:41:28;;;;;;;37.9;34.1;;;;;;;;;;;;;
2019/05/26 03:43:54;;;;;;;42.8;38.4;;;;;;;;;;;;;
2019/05/26 03:46:20;;;;;;;38.4;34.5;;;;;;;;;;;;;
2019/05/26 03:48:45;;;;;;;37;33.3;;;;;;;;;;;;;
2019/05/26 03:51:11;;;;;;;38.3;34.5;;;;;;;;;;;;;
2019/05/26 03:53:36;;;;;;;37.4;33.7;;;;;;;;;;;;;
2019/05/26 03:56:01;;;;;;;36.9;33.3;;;;;;;;;;;;;
2019/05/26 03:58:26;;;;;;;37.1;33.4;;;;;;;;;;;;;
2019/05/26 04:02:28;;;;;;;39.1;35.1;;;;;;;11.82;94.24902;960.1431;;;;
2019/05/26 04:04:53;;;;;;;37.2;33.5;;;;;;;11.88;93.79785;960.1286;;;;
2019/05/26 04:07:18;;;;;;;39.8;35.8;;;;;;;11.84;94.51855;960.2057;;;;
2019/05/26 04:09:43;;;;;;;36.4;32.8;;;;;;;11.87;94.38574;960.1127;;;;
2019/05/26 04:12:08;;;;;;;35.6;32.2;;;;;;;11.89;94.19434;960.1741;;;;
2019/05/26 04:14:34;;;;;;;38.2;34.5;;;;;;;11.93;94.01758;960.2123;;;;
2019/05/26 04:16:59;;;;;;;36;32.5;;;;;;;12.01;93.65039;960.2514;;;;
2019/05/26 04:19:47;;;;;;;39.6;35.6;;;;;;;11.89;94.09082;960.2166;;;;
2019/05/26 04:22:13;;;;;;;35.7;32;;;;;;;11.98;93.58887;960.2537;;;;
2019/05/26 04:24:38;;;;;;;40.2;36.1;;;;;;;11.91;94.37207;960.2615;;;;
2019/05/26 04:27:24;;;;;;;39.7;35.6;;;;;;;11.99;93.78809;960.2104;;;;
2019/05/26 04:29:57;;;;;;;36.5;32.8;;;;;;;12.17;92.95996;960.3226;;;;
2019/05/26 04:32:24;;;;;;;33.2;29.9;;;;;;;12.34;91.80078;960.2572;;;;
2019/05/26 04:34:49;;;;;;;37.8;34;;;;;;;12.32;92.31836;960.2463;;;;
2019/05/26 04:37:14;;;;;;;34.1;30.7;;;;;;;12.3;92;960.3128;;;;
2019/05/26 04:39:39;;;;;;;32.7;29.5;;;;;;;12.43;91.24219;960.242;;;;
2019/05/26 04:42:04;;;;;;;31.9;28.8;;;;;;;12.52;90.86523;960.2495;;;;
2019/05/26 04:44:29;;;;;;;32.2;29.1;;;;;;;12.58;90.59961;960.2467;;;;
2019/05/26 04:47:04;;;;;;;36.9;33.2;;;;;;;12.43;91.06641;960.2766;;;;
2019/05/26 04:49:29;;;;;;;32.9;29.6;;;;;;;12.41;91.56055;960.3178;;;;
2019/05/26 04:51:54;;;;;;;36.9;33.2;;;;;;;12.41;91.53613;960.2882;;;;
2019/05/26 04:54:19;;;;;;;34.6;31.2;;;;;;;12.54;90.625;960.3506;;;;
2019/05/26 04:56:44;;;;;;;31.6;28.5;;;;;;;12.64;89.92676;960.4204;;;;
2019/05/26 04:59:09;;;;;;;28.3;25.6;;;;;;;12.66;89.67676;960.3923;;;;
2019/05/26 05:01:34;;;;;;;30.8;27.7;;;;;;;12.68;89.30957;960.3943;;;;
2019/05/26 05:04:00;;;;;;;33.9;30.3;;;;;;;12.49;90.14063;960.3855;;;;
2019/05/26 05:06:25;;;;;;;30.9;27.9;;;;;;;12.56;90.55957;960.3864;;;;
2019/05/26 05:09:01;;;;;;;26.8;24.3;;;;;;;12.82;88.89844;960.3611;;;;
2019/05/26 05:11:26;;;;;;;31.4;28.2;;;;;;;12.56;89.84277;960.3519;;;;
2019/05/26 05:13:51;;;;;;;30.2;27.2;;;;;;;12.63;89.35645;960.3995;;;;
2019/05/26 05:16:16;;;;;;;32.7;29.5;;;;;;;12.5;89.97852;960.3934;;;;
2019/05/26 05:18:41;;;;;;;32.7;29.4;;;;;;;12.48;90.09082;960.3998;;;;
2019/05/26 05:21:09;;;;;;;34.2;30.6;;;;;;;12.38;91.43945;960.3203;;;;
2019/05/26 05:23:35;;;;;;;31;28;;;;;;;12.57;90.17871;960.3469;;;;
2019/05/26 05:26:00;;;;;;;30.3;27.3;;;;;;;;;;;;;
2019/05/26 05:28:25;;;;;;;29.5;26.6;;;;;;;;;;;;;
2019/05/26 05:30:51;;;;;;;30.8;27.8;;;;;;;;;;;;;
2019/05/26 05:33:16;;;;;;;29.8;26.8;;;;;;;;;;;;;
2019/05/26 05:35:41;;;;;;;29.5;26.6;;;;;;;;;;;;;
2019/05/26 05:38:06;;;;;;;28.5;25.7;;;;;;;;;;;;;
2019/05/26 05:40:31;;;;;;;27.4;24.8;;;;;;;;;;;;;
2019/05/26 05:42:57;;;;;;;29.4;26.5;;;;;;;;;;;;;
2019/05/26 05:45:22;;;;;;;28.2;25.4;;;;;;;;;;;;;
2019/05/26 05:47:48;;;;;;;30.7;27.6;;;;;;;;;;;;;
2019/05/26 05:50:13;;;;;;;26.8;24.2;;;;;;;;;;;;;
2019/05/26 05:52:39;;;;;;;28.3;25.6;;;;;;;;;;;;;
2019/05/26 05:55:04;;;;;;;29.2;26.3;;;;;;;;;;;;;
2019/05/26 05:57:29;;;;;;;30.1;27.1;;;;;;;;;;;;;
2019/05/26 05:59:54;;;;;;;25.9;23.4;;;;;;;;;;;;;
2019/05/26 06:02:20;;;;;;;26.7;24.1;;;;;;;;;;;;;
2019/05/26 06:04:45;;;;;;;26.9;24.3;;;;;;;;;;;;;
2019/05/26 06:07:10;;;;;;;29.5;26.6;;;;;;;;;;;;;
2019/05/26 06:09:35;;;;;;;28.4;25.7;;;;;;;;;;;;;
2019/05/26 06:12:00;;;;;;;26.9;24.3;;;;;;;;;;;;;
2019/05/26 06:14:26;;;;;;;24.1;21.7;;;;;;;;;;;;;
2019/05/26 06:16:51;;;;;;;25.5;22.9;;;;;;;;;;;;;
2019/05/26 06:19:17;;;;;;;24.8;22.4;;;;;;;;;;;;;
2019/05/26 06:21:42;;;;;;;25.7;23.3;;;;;;;;;;;;;
2019/05/26 06:24:07;;;;;;;25.9;23.5;;;;;;;;;;;;;
2019/05/26 06:26:32;;;;;;;27.1;24.3;;;;;;;;;;;;;
2019/05/26 06:28:57;;;;;;;24.3;22;;;;;;;;;;;;;
2019/05/26 06:31:23;;;;;;;24;21.7;;;;;;;;;;;;;
2019/05/26 06:33:48;;;;;;;22.6;20.4;;;;;;;;;;;;;
2019/05/26 06:36:14;;;;;;;21.9;19.9;;;;;;;;;;;;;
2019/05/26 06:38:39;;;;;;;20.7;18.7;;;;;;;;;;;;;
2019/05/26 06:41:06;;;;;;;20.5;18.6;;;;;;;;;;;;;
2019/05/26 06:43:31;;;;;;;21.4;19.4;;;;;;;;;;;;;
2019/05/26 06:45:56;;;;;;;19.9;18;;;;;;;;;;;;;
2019/05/26 06:48:21;;;;;;;20.4;18.6;;;;;;;;;;;;;
2019/05/26 06:50:46;;;;;;;20;18.1;;;;;;;;;;;;;
2019/05/26 06:53:11;;;;;;;18.5;16.7;;;;;;;;;;;;;
2019/05/26 06:55:36;;;;;;;20.2;18.3;;;;;;;;;;;;;
2019/05/26 06:58:02;;;;;;;18.9;17.1;;;;;;;;;;;;;
2019/05/26 07:00:27;;;;;;;19.6;17.7;;;;;;;;;;;;;
2019/05/26 07:02:51;;;;;;;17.6;15.9;;;;;;;;;;;;;
2019/05/26 07:05:17;;;;;;;17.6;15.9;;;;;;;;;;;;;
2019/05/26 07:07:42;;;;;;;18.2;16.5;;;;;;;;;;;;;
2019/05/26 07:10:07;;;;;;;17.1;15.5;;;;;;;;;;;;;
2019/05/26 07:12:32;;;;;;;16.1;14.6;;;;;;;;;;;;;
2019/05/26 07:14:58;;;;;;;16.8;15.1;;;;;;;;;;;;;
2019/05/26 07:17:22;;;;;;;15.5;14;;;;;;;;;;;;;
2019/05/26 07:19:48;;;;;;;17;15.3;;;;;;;;;;;;;
2019/05/26 07:22:13;;;;;;;15;13.5;;;;;;;;;;;;;
2019/05/26 07:24:39;;;;;;;14;12.7;;;;;;;;;;;;;
2019/05/26 07:27:04;;;;;;;14.1;12.8;;;;;;;;;;;;;
2019/05/26 07:29:32;;;;;;;13.5;12.2;;;;;;;;;;;;;
2019/05/26 07:31:57;;;;;;;14.4;13.1;;;;;;;;;;;;;
2019/05/26 07:34:23;;;;;;;14;12.7;;;;;;;;;;;;;
2019/05/26 07:36:48;;;;;;;15.4;13.9;;;;;;;;;;;;;
2019/05/26 07:39:13;;;;;;;15.5;14;;;;;;;;;;;;;
2019/05/26 07:41:38;;;;;;;14;12.7;;;;;;;;;;;;;
2019/05/26 07:44:03;;;;;;;14.1;12.7;;;;;;;;;;;;;
2019/05/26 07:46:28;;;;;;;14.3;12.9;;;;;;;;;;;;;
2019/05/26 07:48:55;;;;;;;13.3;12;;;;;;;;;;;;;
2019/05/26 07:51:20;;;;;;;14.5;13.1;;;;;;;;;;;;;
2019/05/26 07:53:52;;;;;;;12.8;11.6;;;;;;;;;;;;;
2019/05/26 07:56:18;;;;;;;12.8;11.6;;;;;;;;;;;;;
2019/05/26 07:58:43;;;;;;;12.5;11.3;;;;;;;;;;;;;
2019/05/26 08:01:08;;;;;;;11;10;;;;;;;;;;;;;
2019/05/26 08:03:33;;;;;;;11.2;10.1;;;;;;;;;;;;;
2019/05/26 08:05:58;;;;;;;10.2;9.3;;;;;;;;;;;;;
2019/05/26 08:08:23;;;;;;;11.2;10.1;;;;;;;;;;;;;
2019/05/26 08:10:49;;;;;;;10.6;9.6;;;;;;;;;;;;;
2019/05/26 08:13:13;;;;;;;10.4;9.4;;;;;;;;;;;;;
2019/05/26 08:15:38;;;;;;;11.5;10.3;;;;;;;;;;;;;
2019/05/26 08:18:04;;;;;;;12.6;11.4;;;;;;;;;;;;;
2019/05/26 08:20:29;;;;;;;11.2;10.2;;;;;;;;;;;;;
2019/05/26 08:22:54;;;;;;;10.4;9.4;;;;;;;;;;;;;
2019/05/26 08:25:19;;;;;;;12.2;10.9;;;;;;;;;;;;;
2019/05/26 08:27:44;;;;;;;11.2;10.1;;;;;;;;;;;;;
2019/05/26 08:30:09;;;;;;;11.3;10.2;;;;;;;;;;;;;
2019/05/26 08:32:35;;;;;;;10.5;9.4;;;;;;;;;;;;;
2019/05/26 08:35:00;;;;;;;12.2;11;;;;;;;;;;;;;
2019/05/26 08:37:25;;;;;;;9.7;8.7;;;;;;;;;;;;;
2019/05/26 08:39:50;;;;;;;9.1;8.2;;;;;;;;;;;;;
2019/05/26 08:42:16;;;;;;;8.5;7.7;;;;;;;;;;;;;
2019/05/26 08:44:41;;;;;;;8.4;7.5;;;;;;;;;;;;;
2019/05/26 08:47:09;;;;;;;8.7;7.9;;;;;;;;;;;;;
2019/05/26 08:49:40;;;;;;;8.1;7.3;;;;;;;;;;;;;
2019/05/26 08:52:06;;;;;;;7.9;7.1;;;;;;;;;;;;;
2019/05/26 08:54:31;;;;;;;9.7;8.8;;;;;;;;;;;;;
2019/05/26 08:56:56;;;;;;;9.4;8.5;;;;;;;;;;;;;
2019/05/26 08:59:22;;;;;;;8.6;7.8;;;;;;;;;;;;;
2019/05/26 09:01:46;;;;;;;8.2;7.3;;;;;;;;;;;;;
2019/05/26 09:04:11;;;;;;;9.1;8.1;;;;;;;;;;;;;
2019/05/26 09:06:37;;;;;;;9.6;8.5;;;;;;;;;;;;;
2019/05/26 09:09:02;;;;;;;7.9;7.1;;;;;;;;;;;;;
2019/05/26 09:11:27;;;;;;;7.9;7.1;;;;;;;;;;;;;
2019/05/26 09:13:52;;;;;;;7.9;7.2;;;;;;;;;;;;;
2019/05/26 09:16:18;;;;;;;8.2;7.3;;;;;;;;;;;;;
2019/05/26 09:18:43;;;;;;;9.6;8.6;;;;;;;;;;;;;
2019/05/26 09:21:09;;;;;;;8;7.3;;;;;;;;;;;;;
2019/05/26 09:23:34;;;;;;;7;6.3;;;;;;;;;;;;;
2019/05/26 09:26:00;;;;;;;8.5;7;;;;;;;;;;;;;
2019/05/26 09:28:25;;;;;;;7.9;7.1;;;;;;;;;;;;;
2019/05/26 09:30:50;;;;;;;7.6;6.8;;;;;;;;;;;;;
2019/05/26 09:33:16;;;;;;;7.7;7;;;;;;;;;;;;;
2019/05/26 09:35:41;;;;;;;8.1;7.3;;;;;;;;;;;;;
2019/05/26 09:38:06;;;;;;;8.7;7.9;;;;;;;;;;;;;
2019/05/26 09:40:31;;;;;;;8.6;7.8;;;;;;;;;;;;;
2019/05/26 09:42:56;;;;;;;8.7;7.9;;;;;;;;;;;;;
2019/05/26 09:45:22;;;;;;;9;8;;;;;;;;;;;;;
2019/05/26 09:47:47;;;;;;;8.8;8;;;;;;;;;;;;;
2019/05/26 09:50:12;;;;;;;8.8;7.9;;;;;;;;;;;;;
2019/05/26 09:52:37;;;;;;;8.8;7.9;;;;;;;;;;;;;
2019/05/26 09:55:02;;;;;;;8.8;7.5;;;;;;;;;;;;;
2019/05/26 09:57:28;;;;;;;7.9;7.1;;;;;;;;;;;;;
2019/05/26 10:00:01;;;;;;;9.2;7.7;;;;;;;;;;;;;
2019/05/26 10:02:26;;;;;;;7.5;6.9;;;;;;;;;;;;;
2019/05/26 10:04:51;;;;;;;8.1;6.9;;;;;;;;;;;;;
2019/05/26 10:07:17;;;;;;;7.2;6.5;;;;;;;;;;;;;
2019/05/26 10:09:43;;;;;;;7.7;6.9;;;;;;;;;;;;;
2019/05/26 10:12:08;;;;;;;7.2;6.2;;;;;;;;;;;;;
2019/05/26 10:14:33;;;;;;;7.2;6.5;;;;;;;;;;;;;
2019/05/26 10:16:58;;;;;;;7;6.3;;;;;;;;;;;;;
2019/05/26 10:19:23;;;;;;;7.4;6.3;;;;;;;;;;;;;
2019/05/26 10:21:48;;;;;;;7.5;5.9;;;;;;;;;;;;;
2019/05/26 10:24:13;;;;;;;5.9;5.4;;;;;;;;;;;;;
2019/05/26 10:26:38;;;;;;;6.8;5.7;;;;;;;;;;;;;
2019/05/26 10:29:03;;;;;;;8.5;5.9;;;;;;;;;;;;;
2019/05/26 10:31:29;;;;;;;14.2;6.6;;;;;;;;;;;;;
2019/05/26 10:33:54;;;;;;;7.1;6.4;;;;;;;;;;;;;
2019/05/26 10:36:19;;;;;;;6.8;6.1;;;;;;;;;;;;;
2019/05/26 10:38:44;;;;;;;6;5.5;;;;;;;;;;;;;
2019/05/26 10:41:09;;;;;;;6.1;5.5;;;;;;;;;;;;;
2019/05/26 10:43:34;;;;;;;7;6;;;;;;;;;;;;;
2019/05/26 10:46:01;;;;;;;6.6;5.9;;;;;;;;;;;;;
2019/05/26 10:48:30;;;;;;;7.1;6.4;;;;;;;;;;;;;
2019/05/26 10:51:05;;;;;;;7.3;6.2;;;;;;;;;;;;;
2019/05/26 10:53:30;;;;;;;6.8;6.2;;;;;;;;;;;;;
2019/05/26 10:55:55;;;;;;;7;6.1;;;;;;;;;;;;;
2019/05/26 10:58:23;;;;;;;10.3;5.2;;;;;;;;;;;;;
2019/05/26 11:00:49;;;;;;;6.1;5.2;;;;;;;;;;;;;
2019/05/26 11:03:15;;;;;;;5.7;5.1;;;;;;;;;;;;;
2019/05/26 11:05:40;;;;;;;5.4;4.9;;;;;;;;;;;;;
2019/05/26 11:08:05;;;;;;;5.7;4.9;;;;;;;;;;;;;
2019/05/26 11:10:31;;;;;;;5.3;4.8;;;;;;;;;;;;;
2019/05/26 11:12:57;;;;;;;5.8;4.7;;;;;;;;;;;;;
2019/05/26 11:15:22;;;;;;;5.3;4.8;;;;;;;;;;;;;
2019/05/26 11:17:47;;;;;;;5.2;4.7;;;;;;;;;;;;;
2019/05/26 11:20:19;;;;;;;6.3;5.1;;;;;;;;;;;;;
2019/05/26 11:22:44;;;;;;;7.2;4.6;;;;;;;;;;;;;
2019/05/26 11:25:09;;;;;;;6.7;4.9;;;;;;;;;;;;;
2019/05/26 11:27:34;;;;;;;5.1;4.6;;;;;;;;;;;;;
2019/05/26 11:29:59;;;;;;;5.9;4.6;;;;;;;;;;;;;
2019/05/26 11:32:24;;;;;;;5.5;5;;;;;;;;;;;;;
2019/05/26 11:34:50;;;;;;;6.1;5.2;;;;;;;;;;;;;
2019/05/26 11:37:15;;;;;;;5.8;5.1;;;;;;;;;;;;;
2019/05/26 11:39:41;;;;;;;5.1;4.6;;;;;;;;;;;;;
2019/05/26 11:42:06;;;;;;;6.3;4.7;;;;;;;;;;;;;
2019/05/26 11:44:32;;;;;;;5.7;4.5;;;;;;;;;;;;;
2019/05/26 11:46:57;;;;;;;5.5;4.3;;;;;;;;;;;;;
2019/05/26 11:49:22;;;;;;;5.3;4;;;;;;;;;;;;;
2019/05/26 11:51:47;;;;;;;5.5;4.9;;;;;;;;;;;;;
2019/05/26 11:54:12;;;;;;;5.2;4.7;;;;;;;;;;;;;
2019/05/26 11:56:37;;;;;;;5.6;4.3;;;;;;;;;;;;;
2019/05/26 11:59:02;;;;;;;5.2;4;;;;;;;;;;;;;
2019/05/26 12:01:27;;;;;;;5.1;4;;;;;;;;;;;;;
2019/05/26 12:03:52;;;;;;;4.8;4.3;;;;;;;;;;;;;
2019/05/26 12:06:17;;;;;;;6.6;4.2;;;;;;;;;;;;;
2019/05/26 12:08:43;;;;;;;5;4.1;;;;;;;;;;;;;
2019/05/26 12:11:08;;;;;;;3.6;3.3;;;;;;;;;;;;;
2019/05/26 12:13:35;;;;;;;3.9;3.5;;;;;;;;;;;;;
2019/05/26 12:16:03;;;;;;;5;3.9;;;;;;;;;;;;;
2019/05/26 12:18:28;;;;;;;4.6;4.1;;;;;;;;;;;;;
2019/05/26 12:20:54;;;;;;;5;4.4;;;;;;;;;;;;;
2019/05/26 12:23:18;;;;;;;4.8;3.8;;;;;;;;;;;;;
2019/05/26 12:25:43;;;;;;;4.4;4;;;;;;;;;;;;;
2019/05/26 12:28:09;;;;;;;3.8;3.2;;;;;;;;;;;;;
2019/05/26 12:30:34;;;;;;;3.3;3;;;;;;;;;;;;;
2019/05/26 12:32:59;;;;;;;4;3.6;;;;;;;;;;;;;
2019/05/26 12:35:39;;;;;;;5;4.4;;;;;;;;;;;;;
2019/05/26 12:37:49;;;;;;;5.6;4.4;;;;;;;;;;;;;
2019/05/26 12:40:17;;;;;;;6.1;4.6;;;;;;;;;;;;;
2019/05/26 12:42:42;;;;;;;5.4;4.7;;;;;;;;;;;;;
2019/05/26 12:45:07;;;;;;;6.7;5.1;;;;;;;;;;;;;
2019/05/26 12:47:32;;;;;;;6.4;5.1;;;;;;;;;;;;;
2019/05/26 12:49:58;;;;;;;5.2;4.7;;;;;;;;;;;;;
2019/05/26 12:52:23;;;;;;;5.9;5.3;;;;;;;;;;;;;
2019/05/26 12:54:48;;;;;;;5.8;5.2;;;;;;;;;;;;;
2019/05/26 12:57:14;;;;;;;5.9;5;;;;;;;;;;;;;
2019/05/26 12:59:40;;;;;;;5.2;4.7;;;;;;;;;;;;;
2019/05/26 13:02:05;;;;;;;6.5;5.4;;;;;;;;;;;;;
2019/05/26 13:04:30;;;;;;;5.8;4.7;;;;;;;;;;;;;
2019/05/26 13:06:55;;;;;;;5.3;4.8;;;;;;;;;;;;;
2019/05/26 13:09:20;;;;;;;5.4;4.6;;;;;;;;;;;;;
2019/05/26 13:11:46;;;;;;;6;5.2;;;;;;;;;;;;;
2019/05/26 13:14:11;;;;;;;5.2;4.7;;;;;;;;;;;;;
2019/05/26 13:16:36;;;;;;;6.5;5.1;;;;;;;;;;;;;
2019/05/26 13:19:01;;;;;;;5.1;4.6;;;;;;;;;;;;;
2019/05/26 13:21:26;;;;;;;5.3;4.7;;;;;;;;;;;;;
2019/05/26 13:23:51;;;;;;;5.3;4.8;;;;;;;;;;;;;
2019/05/26 13:26:17;;;;;;;5.6;4.6;;;;;;;;;;;;;
2019/05/26 13:28:42;;;;;;;5.5;5;;;;;;;;;;;;;
2019/05/26 13:31:07;;;;;;;5.5;4.9;;;;;;;;;;;;;
2019/05/26 13:33:32;;;;;;;6.1;4.9;;;;;;;;;;;;;
2019/05/26 13:35:57;;;;;;;5.1;4.6;;;;;;;;;;;;;
2019/05/26 13:38:23;;;;;;;5;4.6;;;;;;;;;;;;;
2019/05/26 13:40:48;;;;;;;5.3;4.1;;;;;;;;;;;;;
2019/05/26 13:43:13;;;;;;;5.6;4.5;;;;;;;;;;;;;
2019/05/26 13:45:38;;;;;;;6;4.1;;;;;;;;;;;;;
2019/05/26 13:48:03;;;;;;;5.6;3.7;;;;;;;;;;;;;
2019/05/26 13:50:28;;;;;;;4.3;3.9;;;;;;;;;;;;;
2019/05/26 13:52:53;;;;;;;4.8;3.8;;;;;;;;;;;;;
2019/05/26 13:55:21;;;;;;;5.7;3.9;;;;;;;;;;;;;
2019/05/26 13:57:46;;;;;;;4.3;3.2;;;;;;;;;;;;;
2019/05/26 14:00:11;;;;;;;4.8;3.6;;;;;;;;;;;;;
2019/05/26 14:02:36;;;;;;;3.5;3.2;;;;;;;;;;;;;
2019/05/26 14:05:02;;;;;;;3.8;3;;;;;;;;;;;;;
2019/05/26 14:07:27;;;;;;;3.8;3.3;;;;;;;;;;;;;
2019/05/26 14:09:52;;;;;;;3.6;3.3;;;;;;;;;;;;;
2019/05/26 14:12:17;;;;;;;4.2;3;;;;;;;;;;;;;
2019/05/26 14:14:42;;;;;;;4.6;2.9;;;;;;;;;;;;;
2019/05/26 14:17:07;;;;;;;3.5;2.8;;;;;;;;;;;;;
2019/05/26 14:19:33;;;;;;;4.3;2.9;;;;;;;;;;;;;
2019/05/26 14:21:58;;;;;;;4.3;3.1;;;;;;;;;;;;;
2019/05/26 14:24:24;;;;;;;5;2.8;;;;;;;;;;;;;
2019/05/26 14:26:49;;;;;;;3.7;3.1;;;;;;;;;;;;;
2019/05/26 14:29:15;;;;;;;3.5;2.8;;;;;;;;;;;;;
2019/05/26 14:31:40;;;;;;;3.6;2.8;;;;;;;;;;;;;
2019/05/26 14:34:05;;;;;;;4.3;2.8;;;;;;;;;;;;;
2019/05/26 14:36:30;;;;;;;4.8;3.5;;;;;;;;;;;;;
2019/05/26 14:38:56;;;;;;;4.8;2.9;;;;;;;;;;;;;
2019/05/26 14:41:22;;;;;;;4.1;2.8;;;;;;;;;;;;;
2019/05/26 14:43:49;;;;;;;4.4;2.9;;;;;;;;;;;;;
2019/05/26 14:46:14;;;;;;;3.6;3.3;;;;;;;;;;;;;
2019/05/26 14:48:40;;;;;;;4.2;3;;;;;;;;;;;;;
2019/05/26 14:51:06;;;;;;;3.2;2.3;;;;;;;;;;;;;
2019/05/26 14:53:31;;;;;;;2.7;2.3;;;;;;;;;;;;;
2019/05/26 14:55:56;;;;;;;2.9;2.7;;;;;;;;;;;;;
2019/05/26 14:58:21;;;;;;;3.5;2.8;;;;;;;;;;;;;
2019/05/26 15:00:47;;;;;;;3;2.7;;;;;;;;;;;;;
2019/05/26 15:03:13;;;;;;;3.2;2.9;;;;;;;;;;;;;
2019/05/26 15:05:38;;;;;;;3.3;2.8;;;;;;;;;;;;;
2019/05/26 15:08:04;;;;;;;3.1;2.8;;;;;;;;;;;;;
2019/05/26 15:10:29;;;;;;;3.1;2.8;;;;;;;;;;;;;
2019/05/26 15:12:55;;;;;;;3.5;3.2;;;;;;;;;;;;;
2019/05/26 15:15:20;;;;;;;4.3;2.6;;;;;;;;;;;;;
2019/05/26 15:17:45;;;;;;;3.4;2.9;;;;;;;;;;;;;
2019/05/26 15:20:10;;;;;;;3.1;2.7;;;;;;;;;;;;;
2019/05/26 15:22:35;;;;;;;3.3;3;;;;;;;;;;;;;
2019/05/26 15:25:01;;;;;;;3.6;2.9;;;;;;;;;;;;;
2019/05/26 15:27:26;;;;;;;5;2.6;;;;;;;;;;;;;
2019/05/26 15:29:51;;;;;;;3.1;2.8;;;;;;;;;;;;;
2019/05/26 15:32:16;;;;;;;3.1;2.8;;;;;;;;;;;;;
2019/05/26 15:34:41;;;;;;;3.8;2.9;;;;;;;;;;;;;
2019/05/26 15:37:06;;;;;;;3;2.7;;;;;;;;;;;;;
2019/05/26 15:39:31;;;;;;;3;2.6;;;;;;;;;;;;;
2019/05/26 15:42:00;;;;;;;5.1;2.9;;;;;;;;;;;;;
2019/05/26 15:44:25;;;;;;;3.2;2.9;;;;;;;;;;;;;
2019/05/26 15:46:50;;;;;;;3;2.7;;;;;;;;;;;;;
2019/05/26 15:49:16;;;;;;;3;2.8;;;;;;;;;;;;;
2019/05/26 15:51:40;;;;;;;3.5;3.2;;;;;;;;;;;;;
2019/05/26 15:54:05;;;;;;;3.6;3.2;;;;;;;;;;;;;
2019/05/26 15:56:30;;;;;;;3.6;2.9;;;;;;;;;;;;;
2019/05/26 15:58:55;;;;;;;4.3;2.9;;;;;;;;;;;;;
2019/05/26 16:01:21;;;;;;;3.5;3.2;;;;;;;;;;;;;
2019/05/26 16:03:46;;;;;;;3.2;2.9;;;;;;;;;;;;;
2019/05/26 16:06:11;;;;;;;3.8;2.8;;;;;;;;;;;;;
2019/05/26 16:08:36;;;;;;;3.8;2.7;;;;;;;;;;;;;
2019/05/26 16:11:01;;;;;;;3.6;3;;;;;;;;;;;;;
2019/05/26 16:13:27;;;;;;;3.5;3.2;;;;;;;;;;;;;
2019/05/26 16:15:53;;;;;;;3.3;3;;;;;;;;;;;;;
2019/05/26 16:18:17;;;;;;;3.2;2.9;;;;;;;;;;;;;
2019/05/26 16:20:43;;;;;;;3.5;3.2;;;;;;;;;;;;;
2019/05/26 16:23:08;;;;;;;3.3;3;;;;;;;;;;;;;
2019/05/26 16:25:33;;;;;;;5;3.2;;;;;;;;;;;;;
2019/05/26 16:27:58;;;;;;;4.9;3;;;;;;;;;;;;;
2019/05/26 16:30:25;;;;;;;3.5;3.2;;;;;;;;;;;;;
2019/05/26 16:32:50;;;;;;;3.9;3.2;;;;;;;;;;;;;
2019/05/26 16:35:15;;;;;;;3.7;3.4;;;;;;;;;;;;;
2019/05/26 16:37:40;;;;;;;3.7;3.4;;;;;;;;;;;;;
2019/05/26 16:40:06;;;;;;;3.6;3.3;;;;;;;;;;;;;
2019/05/26 16:42:31;;;;;;;4;3.6;;;;;;;;;;;;;
2019/05/26 16:44:56;;;;;;;3.6;3.3;;;;;;;;;;;;;
2019/05/26 16:47:21;;;;;;;3.8;3.3;;;;;;;;;;;;;
2019/05/26 16:49:46;;;;;;;3.5;3.2;;;;;;;;;;;;;
2019/05/26 16:52:11;;;;;;;3.5;3.2;;;;;;;;;;;;;
2019/05/26 16:54:36;;;;;;;3.8;3.5;;;;;;;;;;;;;
2019/05/26 16:57:01;;;;;;;5.4;3.8;;;;;;;;;;;;;
2019/05/26 16:59:26;;;;;;;3.8;3.4;;;;;;;;;;;;;
2019/05/26 17:01:52;;;;;;;3.6;3.3;;;;;;;;;;;;;
2019/05/26 17:04:17;;;;;;;3.5;3.2;;;;;;;;;;;;;
2019/05/26 17:06:42;;;;;;;4.1;3.4;;;;;;;;;;;;;
2019/05/26 17:09:07;;;;;;;3.8;3.3;;;;;;;;;;;;;
2019/05/26 17:11:32;;;;;;;4.5;3.5;;;;;;;;;;;;;
2019/05/26 17:13:57;;;;;;;3.4;3.1;;;;;;;;;;;;;
2019/05/26 17:16:22;;;;;;;3.8;3.5;;;;;;;;;;;;;
2019/05/26 17:18:48;;;;;;;4.1;3.5;;;;;;;;;;;;;
2019/05/26 17:21:13;;;;;;;3.9;3.4;;;;;;;;;;;;;
2019/05/26 17:23:40;;;;;;;5.4;3.8;;;;;;;;;;;;;
2019/05/26 17:26:05;;;;;;;4.1;3.7;;;;;;;;;;;;;
2019/05/26 17:28:30;;;;;;;4.5;3.7;;;;;;;;;;;;;
2019/05/26 17:30:55;;;;;;;4.6;3.7;;;;;;;;;;;;;
2019/05/26 17:33:20;;;;;;;5.6;3.8;;;;;;;;;;;;;
2019/05/26 17:35:45;;;;;;;4.6;3.4;;;;;;;;;;;;;
2019/05/26 17:38:10;;;;;;;6.1;3.5;;;;;;;;;;;;;
2019/05/26 17:40:35;;;;;;;3.9;3.4;;;;;;;;;;;;;
2019/05/26 17:43:00;;;;;;;3.8;3.3;;;;;;;;;;;;;
2019/05/26 17:45:26;;;;;;;3.5;3.2;;;;;;;;;;;;;
2019/05/26 17:47:51;;;;;;;3.9;3.6;;;;;;;;;;;;;
2019/05/26 17:50:16;;;;;;;3.5;3.2;;;;;;;;;;;;;
2019/05/26 17:52:41;;;;;;;4.5;3.6;;;;;;;;;;;;;
2019/05/26 17:55:06;;;;;;;4;3.6;;;;;;;;;;;;;
2019/05/26 17:57:32;;;;;;;4.9;3.7;;;;;;;;;;;;;
2019/05/26 18:00:10;;;;;;;5.1;3.5;;;;;;;;;;;;;
2019/05/26 18:02:35;;;;;;;3.6;3.3;;;;;;;;;;;;;
2019/05/26 18:05:00;;;;;;;4;3.6;;;;;;;;;;;;;
2019/05/26 18:07:25;;;;;;;3.8;3.2;;;;;;;;;;;;;
2019/05/26 18:09:50;;;;;;;4.4;3.7;;;;;;;;;;;;;
2019/05/26 18:12:16;;;;;;;3.7;3.2;;;;;;;;;;;;;
2019/05/26 18:14:41;;;;;;;4.3;3.3;;;;;;;;;;;;;
2019/05/26 18:17:06;;;;;;;3.1;2.9;;;;;;;;;;;;;
2019/05/26 18:19:31;;;;;;;3.4;3.1;;;;;;;;;;;;;
2019/05/26 18:21:56;;;;;;;3.4;3.1;;;;;;;;;;;;;
2019/05/26 18:24:21;;;;;;;3.4;3.1;;;;;;;;;;;;;
2019/05/26 18:26:46;;;;;;;3.8;3.4;;;;;;;;;;;;;
2019/05/26 18:29:12;;;;;;;3.6;3.1;;;;;;;;;;;;;
2019/05/26 18:31:37;;;;;;;3.9;3.2;;;;;;;;;;;;;
2019/05/26 18:34:03;;;;;;;3.9;3.5;;;;;;;;;;;;;
2019/05/26 18:36:28;;;;;;;3.9;3.2;;;;;;;;;;;;;
2019/05/26 18:38:53;;;;;;;3.8;3.1;;;;;;;;;;;;;
2019/05/26 18:41:18;;;;;;;3.8;3;;;;;;;;;;;;;
2019/05/26 18:43:43;;;;;;;3.3;3;;;;;;;;;;;;;
2019/05/26 18:46:09;;;;;;;3.4;3.1;;;;;;;;;;;;;
2019/05/26 18:48:36;;;;;;;3.8;3.1;;;;;;;;;;;;;
2019/05/26 18:51:02;;;;;;;3.1;2.8;;;;;;;;;;;;;
2019/05/26 18:53:27;;;;;;;3.9;2.6;;;;;;;;;;;;;
2019/05/26 18:55:53;;;;;;;4.4;3.2;;;;;;;;;;;;;
2019/05/26 18:58:18;;;;;;;3.1;2.8;;;;;;;;;;;;;
2019/05/26 19:00:45;;;;;;;3.4;3;;;;;;;;;;;;;
2019/05/26 19:03:10;;;;;;;3.1;2.8;;;;;;;;;;;;;
2019/05/26 19:05:35;;;;;;;3.1;2.8;;;;;;;;;;;;;
2019/05/26 19:08:02;;;;;;;3.4;3.1;;;;;;;;;;;;;
2019/05/26 19:10:27;;;;;;;4.5;3.1;;;;;;;;;;;;;